createdAt,value
2019-05-18T00:01:21.032Z,9.60
2019-05-18T00:03:49.844Z,9.50
2019-05-18T00:06:18.612Z,9.50
2019-05-18T00:08:47.330Z,9.50
2019-05-18T00:11:16.017Z,9.50
2019-05-18T00:13:45.265Z,9.50
2019-05-18T00:16:14.007Z,9.30
2019-05-18T00:18:42.759Z,9.20
2019-05-18T00:21:11.520Z,9.30
2019-05-18T00:23:40.307Z,9.20
2019-05-18T00:26:09.031Z,9.30
2019-05-18T00:28:37.818Z,9.20
2019-05-18T00:31:06.570Z,9.30
2019-05-18T00:33:35.870Z,9.20
2019-05-18T00:36:04.881Z,9.20
2019-05-18T00:38:33.987Z,9.10
2019-05-18T00:41:02.707Z,9.10
2019-05-18T00:43:31.517Z,9.00
2019-05-18T00:46:00.275Z,8.90
2019-05-18T00:48:29.019Z,8.90
2019-05-18T00:50:57.995Z,9.00
2019-05-18T00:53:26.755Z,9.00
2019-05-18T00:55:55.477Z,9.10
2019-05-18T00:58:24.199Z,9.10
2019-05-18T01:00:53.004Z,9.20
2019-05-18T01:03:21.841Z,9.20
2019-05-18T01:05:50.649Z,9.20
2019-05-18T01:08:19.489Z,9.20
2019-05-18T01:10:48.312Z,9.20
2019-05-18T01:13:17.073Z,9.20
2019-05-18T01:15:45.842Z,9.30
2019-05-18T01:18:14.842Z,9.20
2019-05-18T01:20:44.321Z,9.10
2019-05-18T01:23:13.047Z,9.10
2019-05-18T01:25:41.884Z,9.10
2019-05-18T01:28:10.680Z,9.10
2019-05-18T01:30:39.533Z,9.20
2019-05-18T01:33:08.274Z,9.20
2019-05-18T01:35:37.099Z,9.10
2019-05-18T01:38:05.944Z,9.20
2019-05-18T01:40:34.674Z,9.10
2019-05-18T01:43:03.816Z,9.10
2019-05-18T01:45:32.543Z,9.00
2019-05-18T01:48:13.167Z,9.10
2019-05-18T01:50:32.060Z,9.10
2019-05-18T01:53:01.103Z,9.20
2019-05-18T01:55:29.842Z,9.30
2019-05-18T01:57:58.623Z,9.30
2019-05-18T02:00:27.419Z,9.20
2019-05-18T02:02:56.179Z,9.20
2019-05-18T02:05:24.916Z,9.20
2019-05-18T02:07:53.650Z,9.20
2019-05-18T02:10:22.460Z,9.10
2019-05-18T02:12:51.234Z,9.10
2019-05-18T02:15:20.638Z,9.00
2019-05-18T02:17:49.399Z,9.00
2019-05-18T02:20:18.551Z,8.90
2019-05-18T02:22:47.383Z,8.90
2019-05-18T02:25:16.486Z,8.90
2019-05-18T02:27:45.223Z,8.90
2019-05-18T02:30:17.187Z,8.80
2019-05-18T02:32:44.757Z,8.80
2019-05-18T02:35:13.792Z,8.80
2019-05-18T02:37:42.637Z,8.70
2019-05-18T02:40:12.096Z,8.60
2019-05-18T02:42:41.053Z,8.80
2019-05-18T02:45:10.455Z,8.70
2019-05-18T02:47:39.278Z,8.80
2019-05-18T02:50:08.817Z,8.90
2019-05-18T02:52:37.950Z,9.00
2019-05-18T02:55:07.290Z,9.00
2019-05-18T02:57:36.383Z,9.00
2019-05-18T03:00:06.890Z,8.90
2019-05-18T03:02:35.638Z,8.80
2019-05-18T03:05:05.311Z,8.90
2019-05-18T03:07:34.413Z,8.90
2019-05-18T03:10:03.392Z,8.70
2019-05-18T03:12:32.595Z,8.80
2019-05-18T03:15:01.694Z,8.70
2019-05-18T03:17:30.505Z,8.70
2019-05-18T03:19:59.387Z,8.80
2019-05-18T03:22:28.204Z,8.60
2019-05-18T03:24:57.041Z,8.80
2019-05-18T03:27:26.177Z,8.60
2019-05-18T03:29:55.388Z,8.40
2019-05-18T03:32:24.171Z,8.50
2019-05-18T03:34:52.978Z,8.50
2019-05-18T03:37:21.916Z,8.70
2019-05-18T03:39:51.401Z,8.60
2019-05-18T03:42:20.217Z,8.60
2019-05-18T03:44:49.065Z,8.50
2019-05-18T03:47:17.870Z,8.60
2019-05-18T03:49:47.176Z,8.60
2019-05-18T03:52:16.257Z,8.70
2019-05-18T03:54:45.075Z,8.70
2019-05-18T03:57:13.894Z,8.90
2019-05-18T03:59:42.703Z,8.90
2019-05-18T04:02:11.810Z,8.90
2019-05-18T04:04:41.084Z,9.00
2019-05-18T04:07:09.882Z,9.10
2019-05-18T04:09:39.282Z,9.20
2019-05-18T04:12:08.398Z,9.20
2019-05-18T04:14:37.515Z,9.40
2019-05-18T04:17:06.563Z,9.30
2019-05-18T04:19:46.160Z,9.40
2019-05-18T04:22:06.786Z,9.50
2019-05-18T04:24:35.757Z,9.50
2019-05-18T04:27:04.627Z,9.50
2019-05-18T04:29:34.012Z,9.60
2019-05-18T04:32:03.365Z,9.70
2019-05-18T04:34:32.245Z,9.80
2019-05-18T04:37:01.086Z,9.80
2019-05-18T04:39:30.112Z,9.80
2019-05-18T04:41:59.460Z,9.90
2019-05-18T04:44:28.507Z,9.90
2019-05-18T04:46:57.697Z,10.00
2019-05-18T04:49:27.367Z,10.10
2019-05-18T04:51:56.236Z,10.30
2019-05-18T04:54:25.024Z,10.40
2019-05-18T04:56:53.816Z,10.50
2019-05-18T04:59:22.917Z,10.60
2019-05-18T05:01:51.765Z,10.60
2019-05-18T05:04:20.779Z,10.70
2019-05-18T05:06:49.533Z,10.80
2019-05-18T05:09:18.638Z,10.90
2019-05-18T05:11:47.403Z,10.90
2019-05-18T05:14:16.647Z,11.10
2019-05-18T05:16:45.416Z,11.20
2019-05-18T05:19:14.193Z,11.30
2019-05-18T05:21:43.304Z,11.30
2019-05-18T05:24:12.023Z,11.40
2019-05-18T05:26:40.773Z,11.60
2019-05-18T05:29:09.502Z,11.70
2019-05-18T05:31:38.412Z,11.80
2019-05-18T05:34:07.176Z,11.90
2019-05-18T05:36:35.894Z,12.10
2019-05-18T05:39:06.840Z,12.20
2019-05-18T05:41:35.667Z,12.30
2019-05-18T05:44:04.543Z,12.40
2019-05-18T05:46:33.344Z,12.50
2019-05-18T05:49:02.420Z,12.60
2019-05-18T05:51:31.239Z,12.70
2019-05-18T05:53:59.935Z,12.80
2019-05-18T05:56:28.672Z,12.90
2019-05-18T05:58:57.561Z,13.10
2019-05-18T06:01:26.592Z,13.10
2019-05-18T06:03:55.446Z,12.90
2019-05-18T06:06:24.142Z,13.00
2019-05-18T06:08:53.116Z,13.00
2019-05-18T06:11:22.050Z,13.00
2019-05-18T06:13:50.831Z,13.00
2019-05-18T06:16:19.520Z,13.00
2019-05-18T06:18:48.247Z,12.80
2019-05-18T06:21:17.335Z,12.90
2019-05-18T06:23:46.088Z,13.00
2019-05-18T06:26:14.873Z,13.00
2019-05-18T06:28:43.637Z,13.10
2019-05-18T06:31:12.371Z,13.30
2019-05-18T06:33:41.279Z,13.20
2019-05-18T06:36:10.702Z,13.20
2019-05-18T06:38:39.958Z,13.10
2019-05-18T06:41:08.995Z,13.00
2019-05-18T06:43:37.753Z,13.10
2019-05-18T06:46:06.480Z,13.20
2019-05-18T06:48:35.280Z,13.30
2019-05-18T06:51:07.317Z,13.30
2019-05-18T06:53:35.284Z,13.40
2019-05-18T06:56:04.593Z,13.40
2019-05-18T06:58:33.895Z,13.50
2019-05-18T07:01:02.629Z,13.60
2019-05-18T07:03:31.708Z,13.60
2019-05-18T07:06:00.493Z,13.60
2019-05-18T07:08:29.324Z,13.80
2019-05-18T07:10:58.064Z,13.70
2019-05-18T07:13:26.941Z,13.80
2019-05-18T07:15:55.728Z,13.80
2019-05-18T07:18:24.871Z,13.80
2019-05-18T07:20:53.587Z,13.90
2019-05-18T07:23:22.656Z,14.10
2019-05-18T07:25:51.471Z,14.30
2019-05-18T07:28:20.249Z,14.10
2019-05-18T07:30:48.985Z,14.20
2019-05-18T07:33:17.774Z,14.20
2019-05-18T07:35:46.622Z,14.40
2019-05-18T07:38:15.390Z,14.30
2019-05-18T07:40:44.424Z,14.20
2019-05-18T07:43:13.246Z,14.30
2019-05-18T07:45:42.068Z,14.40
2019-05-18T07:48:10.852Z,14.50
2019-05-18T07:50:40.013Z,14.60
2019-05-18T07:53:08.865Z,14.70
2019-05-18T07:55:37.610Z,14.60
2019-05-18T07:58:08.811Z,14.80
2019-05-18T08:00:37.548Z,14.80
2019-05-18T08:03:06.316Z,15.00
2019-05-18T08:05:35.353Z,15.10
2019-05-18T08:08:04.273Z,14.70
2019-05-18T08:10:37.565Z,14.90
2019-05-18T08:13:07.415Z,15.10
2019-05-18T08:15:36.352Z,15.20
2019-05-18T08:18:05.588Z,15.40
2019-05-18T08:20:34.377Z,15.20
2019-05-18T08:23:03.098Z,15.30
2019-05-18T08:25:31.853Z,15.60
2019-05-18T08:28:00.550Z,15.60
2019-05-18T08:30:29.318Z,15.40
2019-05-18T08:32:58.417Z,15.30
2019-05-18T08:35:27.491Z,15.30
2019-05-18T08:37:56.398Z,15.50
2019-05-18T08:40:25.195Z,15.90
2019-05-18T08:42:54.145Z,15.80
2019-05-18T08:45:23.307Z,16.00
2019-05-18T08:47:52.076Z,15.80
2019-05-18T08:50:20.857Z,16.10
2019-05-18T08:52:49.708Z,16.30
2019-05-18T08:55:19.323Z,16.00
2019-05-18T08:57:48.343Z,16.20
2019-05-18T09:00:18.751Z,16.70
2019-05-18T09:02:47.665Z,16.40
2019-05-18T09:05:16.744Z,16.60
2019-05-18T09:07:46.146Z,16.40
2019-05-18T09:10:15.506Z,16.50
2019-05-18T09:12:44.263Z,17.80
2019-05-18T09:15:13.719Z,18.40
2019-05-18T09:17:42.803Z,18.60
2019-05-18T09:20:11.800Z,18.90
2019-05-18T09:22:40.786Z,19.10
2019-05-18T09:25:09.937Z,19.50
2019-05-18T09:27:39.043Z,19.90
2019-05-18T09:30:08.602Z,18.90
2019-05-18T09:32:38.070Z,19.20
2019-05-18T09:35:07.105Z,18.60
2019-05-18T09:37:36.004Z,19.10
2019-05-18T09:40:05.624Z,19.40
2019-05-18T09:42:34.717Z,19.40
2019-05-18T09:45:03.589Z,20.00
2019-05-18T09:47:32.717Z,20.10
2019-05-18T09:50:01.596Z,19.50
2019-05-18T09:52:44.109Z,20.00
2019-05-18T09:55:01.342Z,19.10
2019-05-18T09:57:30.122Z,19.50
2019-05-18T09:59:58.878Z,19.60
2019-05-18T10:02:27.706Z,20.30
2019-05-18T10:04:56.760Z,20.20
2019-05-18T10:07:25.535Z,19.80
2019-05-18T10:09:54.313Z,19.90
2019-05-18T10:12:24.734Z,19.60
2019-05-18T10:14:53.653Z,19.90
2019-05-18T10:17:22.783Z,19.90
2019-05-18T10:19:51.892Z,20.20
2019-05-18T10:22:20.840Z,21.30
2019-05-18T10:24:50.646Z,21.60
2019-05-18T10:27:19.667Z,21.90
2019-05-18T10:29:48.460Z,20.30
2019-05-18T10:32:24.076Z,19.90
2019-05-18T10:34:52.932Z,20.30
2019-05-18T10:37:21.733Z,20.80
2019-05-18T10:39:50.792Z,21.10
2019-05-18T10:42:19.515Z,20.20
2019-05-18T10:44:48.372Z,20.80
2019-05-18T10:47:17.164Z,20.80
2019-05-18T10:49:45.953Z,21.40
2019-05-18T10:52:15.077Z,20.60
2019-05-18T10:54:43.931Z,21.30
2019-05-18T10:57:12.802Z,21.50
2019-05-18T10:59:41.639Z,21.90
2019-05-18T11:02:10.423Z,22.40
2019-05-18T11:04:39.347Z,21.80
2019-05-18T11:07:08.708Z,22.10
2019-05-18T11:09:37.611Z,21.70
2019-05-18T11:12:06.563Z,21.50
2019-05-18T11:14:35.770Z,21.70
2019-05-18T11:17:04.592Z,21.10
2019-05-18T11:19:33.389Z,21.10
2019-05-18T11:22:02.263Z,21.40
2019-05-18T11:24:31.283Z,20.80
2019-05-18T11:27:00.113Z,21.40
2019-05-18T11:29:28.860Z,21.70
2019-05-18T11:31:57.739Z,20.50
2019-05-18T11:34:26.545Z,21.10
2019-05-18T11:36:55.619Z,21.10
2019-05-18T11:39:24.364Z,21.40
2019-05-18T11:41:53.188Z,21.30
2019-05-18T11:44:22.031Z,21.60
2019-05-18T11:46:50.913Z,22.50
2019-05-18T11:49:19.763Z,22.00
2019-05-18T11:51:48.525Z,22.10
2019-05-18T11:54:17.835Z,22.20
2019-05-18T11:56:47.049Z,22.30
2019-05-18T11:59:16.074Z,22.90
2019-05-18T12:01:44.942Z,23.20
2019-05-18T12:04:14.303Z,22.50
2019-05-18T12:06:43.182Z,22.00
2019-05-18T12:09:11.942Z,22.20
2019-05-18T12:11:40.938Z,22.40
2019-05-18T12:14:09.686Z,22.00
2019-05-18T12:16:38.486Z,22.80
2019-05-18T12:19:07.252Z,23.20
2019-05-18T12:21:36.084Z,23.00
2019-05-18T12:24:14.613Z,23.20
2019-05-18T12:26:35.485Z,23.60
2019-05-18T12:29:04.476Z,24.20
2019-05-18T12:31:33.240Z,23.40
2019-05-18T12:34:01.954Z,23.60
2019-05-18T12:36:30.701Z,23.00
2019-05-18T12:38:59.747Z,23.10
2019-05-18T12:41:31.536Z,23.10
2019-05-18T12:44:00.310Z,23.70
2019-05-18T12:46:29.389Z,24.30
2019-05-18T12:48:58.195Z,24.30
2019-05-18T12:51:27.045Z,23.80
2019-05-18T12:53:55.852Z,23.40
2019-05-18T12:56:25.711Z,23.90
2019-05-18T12:58:54.503Z,23.50
2019-05-18T13:01:23.312Z,24.20
2019-05-18T13:03:52.669Z,24.30
2019-05-18T13:06:21.384Z,23.50
2019-05-18T13:08:50.212Z,24.30
2019-05-18T13:11:19.431Z,24.00
2019-05-18T13:13:48.227Z,24.20
2019-05-18T13:16:19.256Z,23.60
2019-05-18T13:18:48.160Z,22.90
2019-05-18T13:21:16.975Z,22.60
2019-05-18T13:23:46.096Z,22.80
2019-05-18T13:26:14.818Z,23.10
2019-05-18T13:28:43.612Z,22.80
2019-05-18T13:31:12.435Z,22.80
2019-05-18T13:33:41.207Z,23.20
2019-05-18T13:36:10.080Z,23.30
2019-05-18T13:38:39.117Z,23.20
2019-05-18T13:41:07.933Z,23.10
2019-05-18T13:43:36.704Z,23.20
2019-05-18T13:46:05.468Z,23.70
2019-05-18T13:48:35.488Z,23.80
2019-05-18T13:51:04.887Z,24.00
2019-05-18T13:53:34.133Z,23.70
2019-05-18T13:56:02.979Z,23.30
2019-05-18T13:58:31.746Z,23.50
2019-05-18T14:01:00.796Z,23.40
2019-05-18T14:03:29.582Z,23.20
2019-05-18T14:05:59.021Z,23.40
2019-05-18T14:08:27.881Z,24.10
2019-05-18T14:10:56.608Z,23.60
2019-05-18T14:13:25.693Z,23.90
2019-05-18T14:15:54.678Z,24.10
2019-05-18T14:18:23.436Z,24.20
2019-05-18T14:20:52.580Z,24.00
2019-05-18T14:23:21.330Z,24.40
2019-05-18T14:25:50.346Z,23.70
2019-05-18T14:28:19.127Z,23.80
2019-05-18T14:30:48.002Z,23.70
2019-05-18T14:33:16.735Z,23.50
2019-05-18T14:35:46.249Z,24.10
2019-05-18T14:38:15.757Z,24.60
2019-05-18T14:40:44.488Z,23.80
2019-05-18T14:43:13.237Z,23.60
2019-05-18T14:45:42.419Z,23.50
2019-05-18T14:48:11.229Z,23.90
2019-05-18T14:50:40.273Z,23.80
2019-05-18T14:53:09.071Z,24.00
2019-05-18T14:55:57.132Z,23.50
2019-05-18T14:58:26.215Z,22.70
2019-05-18T15:00:55.371Z,23.30
2019-05-18T15:03:24.407Z,23.40
2019-05-18T15:05:53.273Z,23.50
2019-05-18T15:08:22.568Z,23.80
2019-05-18T15:10:51.335Z,23.90
2019-05-18T15:13:20.105Z,24.20
2019-05-18T15:15:48.875Z,24.20
2019-05-18T15:18:18.372Z,24.20
2019-05-18T15:20:47.199Z,23.90
2019-05-18T15:23:16.007Z,23.90
2019-05-18T15:25:50.804Z,23.60
2019-05-18T15:28:15.675Z,23.60
2019-05-18T15:30:44.446Z,23.60
2019-05-18T15:33:13.282Z,23.10
2019-05-18T15:35:42.179Z,22.90
2019-05-18T15:38:11.072Z,22.30
2019-05-18T15:40:39.818Z,22.40
2019-05-18T15:43:08.682Z,22.50
2019-05-18T15:45:37.603Z,22.30
2019-05-18T15:48:06.376Z,22.80
2019-05-18T15:50:35.254Z,22.90
2019-05-18T15:53:03.987Z,22.70
2019-05-18T15:55:33.124Z,22.20
2019-05-18T15:58:02.051Z,22.40
2019-05-18T16:00:31.238Z,22.50
2019-05-18T16:03:00.279Z,22.70
2019-05-18T16:05:28.989Z,22.50
2019-05-18T16:07:57.767Z,22.30
2019-05-18T16:10:27.044Z,22.10
2019-05-18T16:12:55.964Z,22.50
2019-05-18T16:15:24.864Z,22.50
2019-05-18T16:17:53.737Z,22.40
2019-05-18T16:20:22.678Z,22.00
2019-05-18T16:22:51.555Z,21.90
2019-05-18T16:25:20.482Z,21.70
2019-05-18T16:27:49.261Z,21.90
2019-05-18T16:30:18.562Z,21.70
2019-05-18T16:32:47.444Z,21.80
2019-05-18T16:35:16.503Z,21.70
2019-05-18T16:37:45.360Z,21.70
2019-05-18T16:40:15.452Z,21.40
2019-05-18T16:42:46.455Z,21.60
2019-05-18T16:45:16.751Z,21.60
2019-05-18T16:47:45.541Z,21.50
2019-05-18T16:50:14.982Z,21.50
2019-05-18T16:52:43.941Z,21.50
2019-05-18T16:55:13.323Z,21.30
2019-05-18T16:57:42.163Z,21.40
2019-05-18T17:00:15.697Z,21.50
2019-05-18T17:02:42.787Z,21.30
2019-05-18T17:05:13.612Z,21.20
2019-05-18T17:07:42.462Z,21.10
2019-05-18T17:10:11.674Z,21.20
2019-05-18T17:12:41.194Z,21.20
2019-05-18T17:15:10.500Z,21.20
2019-05-18T17:17:39.365Z,21.20
2019-05-18T17:20:08.959Z,21.10
2019-05-18T17:22:38.140Z,21.20
2019-05-18T17:25:07.608Z,21.00
2019-05-18T17:27:36.520Z,21.00
2019-05-18T17:30:06.026Z,20.80
2019-05-18T17:32:35.319Z,21.00
2019-05-18T17:35:04.536Z,21.00
2019-05-18T17:37:33.696Z,20.90
2019-05-18T17:40:02.831Z,20.90
2019-05-18T17:42:31.932Z,20.80
2019-05-18T17:45:01.198Z,20.80
2019-05-18T17:47:30.074Z,20.70
2019-05-18T17:49:59.194Z,20.60
2019-05-18T17:52:28.695Z,20.60
2019-05-18T17:54:57.599Z,20.60
2019-05-18T17:57:26.775Z,20.50
2019-05-18T17:59:55.936Z,20.50
2019-05-18T18:02:25.939Z,20.40
2019-05-18T18:04:55.636Z,20.30
2019-05-18T18:07:24.943Z,20.30
2019-05-18T18:09:54.295Z,20.30
2019-05-18T18:12:24.035Z,20.20
2019-05-18T18:14:53.851Z,20.20
2019-05-18T18:17:22.691Z,20.00
2019-05-18T18:19:51.737Z,20.00
2019-05-18T18:22:23.892Z,20.00
2019-05-18T18:24:52.924Z,20.00
2019-05-18T18:27:25.387Z,19.80
2019-05-18T18:29:53.130Z,19.80
2019-05-18T18:32:22.904Z,19.60
2019-05-18T18:34:54.407Z,19.60
2019-05-18T18:37:24.405Z,19.50
2019-05-18T18:39:54.769Z,19.40
2019-05-18T18:42:23.604Z,19.30
2019-05-18T18:44:52.551Z,19.20
2019-05-18T18:47:21.608Z,19.10
2019-05-18T18:49:50.902Z,19.00
2019-05-18T18:52:19.827Z,18.90
2019-05-18T18:54:48.714Z,18.70
2019-05-18T18:57:17.633Z,18.60
2019-05-18T18:59:47.176Z,18.60
2019-05-18T19:02:17.112Z,18.50
2019-05-18T19:04:46.543Z,18.50
2019-05-18T19:07:15.623Z,18.40
2019-05-18T19:09:44.578Z,18.20
2019-05-18T19:12:13.514Z,18.20
2019-05-18T19:14:43.963Z,18.10
2019-05-18T19:17:13.146Z,18.00
2019-05-18T19:19:42.325Z,18.00
2019-05-18T19:22:11.530Z,17.90
2019-05-18T19:24:40.381Z,17.80
2019-05-18T19:27:09.426Z,17.80
2019-05-18T19:29:38.444Z,17.70
2019-05-18T19:32:07.662Z,17.70
2019-05-18T19:34:36.759Z,17.50
2019-05-18T19:37:05.536Z,17.50
2019-05-18T19:39:34.322Z,17.40
2019-05-18T19:42:04.385Z,17.30
2019-05-18T19:44:33.664Z,17.30
2019-05-18T19:47:02.509Z,17.10
2019-05-18T19:49:31.447Z,17.10
2019-05-18T19:52:00.746Z,17.00
2019-05-18T19:54:29.712Z,16.90
2019-05-18T19:56:59.723Z,16.80
2019-05-18T19:59:28.623Z,16.80
2019-05-18T20:02:01.754Z,16.70
2019-05-18T20:04:30.984Z,16.60
2019-05-18T20:07:00.060Z,16.50
2019-05-18T20:09:28.998Z,16.40
2019-05-18T20:11:57.861Z,16.40
2019-05-18T20:14:27.047Z,16.40
2019-05-18T20:16:56.398Z,16.30
2019-05-18T20:19:38.749Z,16.30
2019-05-18T20:21:57.363Z,16.30
2019-05-18T20:24:26.142Z,16.20
2019-05-18T20:26:55.007Z,16.20
2019-05-18T20:29:24.850Z,16.20
2019-05-18T20:31:53.931Z,16.10
2019-05-18T20:34:23.591Z,16.00
2019-05-18T20:36:53.384Z,16.00
2019-05-18T20:39:22.521Z,15.90
2019-05-18T20:41:51.431Z,15.70
2019-05-18T20:44:20.337Z,15.80
2019-05-18T20:46:49.896Z,15.60
2019-05-18T20:49:19.164Z,15.60
2019-05-18T20:51:48.143Z,15.60
2019-05-18T20:54:17.684Z,15.60
2019-05-18T20:56:46.506Z,15.40
2019-05-18T20:59:15.542Z,15.50
2019-05-18T21:01:44.585Z,15.30
2019-05-18T21:04:13.408Z,15.00
2019-05-18T21:06:45.425Z,15.00
2019-05-18T21:09:14.056Z,14.90
2019-05-18T21:11:44.049Z,14.90
2019-05-18T21:14:13.075Z,15.00
2019-05-18T21:16:42.093Z,15.00
2019-05-18T21:19:11.053Z,15.00
2019-05-18T21:22:01.104Z,14.90
2019-05-18T21:24:31.877Z,14.70
2019-05-18T21:27:00.774Z,14.60
2019-05-18T21:29:30.078Z,14.50
2019-05-18T21:31:58.975Z,14.40
2019-05-18T21:34:27.784Z,14.40
2019-05-18T21:36:56.695Z,14.30
2019-05-18T21:39:26.143Z,14.40
2019-05-18T21:41:55.293Z,14.30
2019-05-18T21:44:24.167Z,14.30
2019-05-18T21:46:53.315Z,14.20
2019-05-18T21:49:22.665Z,14.10
2019-05-18T21:51:51.938Z,14.00
2019-05-18T21:54:20.749Z,13.90
2019-05-18T21:56:49.510Z,13.90
2019-05-18T21:59:18.473Z,13.90
2019-05-18T22:01:47.732Z,14.10
2019-05-18T22:04:17.293Z,13.90
2019-05-18T22:06:46.623Z,14.00
2019-05-18T22:09:16.358Z,13.90
2019-05-18T22:11:46.047Z,13.90
2019-05-18T22:14:14.801Z,13.70
2019-05-18T22:16:43.804Z,13.50
2019-05-18T22:19:12.752Z,13.50
2019-05-18T22:21:41.827Z,13.50
2019-05-18T22:24:10.956Z,13.40
2019-05-18T22:26:39.993Z,13.40
2019-05-18T22:29:09.056Z,13.50
2019-05-18T22:31:38.109Z,13.40
2019-05-18T22:34:06.886Z,13.50
2019-05-18T22:36:35.790Z,13.30
2019-05-18T22:39:06.043Z,13.30
2019-05-18T22:41:35.286Z,13.10
2019-05-18T22:44:04.494Z,13.20
2019-05-18T22:46:33.361Z,13.20
2019-05-18T22:49:02.330Z,13.40
2019-05-18T22:51:31.405Z,13.40
2019-05-18T22:54:00.602Z,13.30
2019-05-18T22:56:29.880Z,13.30
2019-05-18T22:58:58.660Z,13.20
2019-05-18T23:01:27.776Z,13.30
2019-05-18T23:03:56.519Z,13.20
2019-05-18T23:06:25.367Z,13.20
2019-05-18T23:08:54.208Z,13.10
2019-05-18T23:11:23.256Z,13.00
2019-05-18T23:13:52.081Z,13.00
2019-05-18T23:16:21.065Z,12.90
2019-05-18T23:18:56.704Z,12.90
2019-05-18T23:21:20.765Z,13.10
2019-05-18T23:23:49.719Z,13.00
2019-05-18T23:26:18.585Z,12.90
2019-05-18T23:28:47.846Z,12.90
2019-05-18T23:31:16.964Z,12.70
2019-05-18T23:33:45.898Z,12.60
2019-05-18T23:36:14.791Z,12.40
2019-05-18T23:38:43.724Z,12.40
2019-05-18T23:41:12.668Z,12.50
2019-05-18T23:43:41.585Z,12.50
2019-05-18T23:46:10.487Z,12.50
2019-05-18T23:48:39.407Z,12.50
2019-05-18T23:51:08.364Z,12.40
2019-05-18T23:53:37.147Z,12.40
2019-05-18T23:56:06.044Z,12.40
2019-05-18T23:58:34.919Z,12.50
